Pagina principale
METAR-TAF:

METAR-TAF

Aeroporti :

Aeroporto di Rieti

Rieti, Italia

latitudine: 42-25N, longitudine: 012-51E, altezza: 389 m

Osservazione

Il bollettino è stato emesso 1 ora e 4 minuti fa, alle 09:50 UTC
Vento 5 kt da nord
Temperature 6°C
Umidità 93%
Pressione 1010 hPa
Visibilità: 7000 m
Poco nuvoloso ad un'altezza di 1000 ft
Cielo coperto ad un'altezza di 4000 ft

METAR: LIQN 090950Z 35005KT 7000 FEW010 OVC040 06/05 Q1010

Ora: 11:54 (10:54 UTC)


TAF: mancante

Osservazioni e previsioni meteorologiche di più di 4000 aeroporti (messaggi METAR e TAF).

Le stazioni disponibili sono rappresentate dai dischi gialli e rossi sulla carta.

Puntare il mouse per vedere il nome della stazione.

Clicca sopra per visualizzare le osservazioni e previsioni meteorologiche.

Per cambiare la mappa : fare clic sui pulsanti verdi con una croce nera per ingrandire, il pulsante verde con un trattino per diminuire, o sulla freccia verde per le mappe adiacenti.


METAR-TAF: